Mr. Dean — WDC8768 — position and weather

sailwx.info

Track history (hours):
 
Tides and Currents Weather Stations Pressure Air Temp Water Temp Dewpoint Dewpoint Depression Visibility Wind Speed Wind Dir Waves Ship Positions

Mr. Dean

Owner: T & D Towing, LLC, Morgan City, LA. More information available from US FCC via Universal Licensing System and Coast Guard Vessel Documentation Center.

Last reported at 2017-Oct-28 10:12 UTC. Time now 2017-Nov-18 23:29 UTC.
Position N 29°34' W 090°33'.
Warning: this ship's position is 21 days out of date.

Date/timePositionNaut miles runAvg speedWind from/ knotsBaromVisibWave heightAir tempDewpointWater temp
2017-Oct-28 10:12N 29°34' W 090°33'1 7.3
2017-Oct-28 10:00N 29°34' W 090°34'3 6.5
2017-Oct-28 09:30N 29°35' W 090°38'3 6.4
2017-Oct-28 09:00N 29°36' W 090°41'2 4.2
2017-Oct-28 08:30N 29°35' W 090°43'3 5.1
2017-Oct-28 08:00N 29°33' W 090°45'3 6.4
2017-Oct-28 07:30N 29°32' W 090°48'  
2017-Oct-26 02:06N 29°36' W 090°58'3 8.0
2017-Oct-26 01:47N 29°34' W 090°56'2 8.0
2017-Oct-26 01:30N 29°33' W 090°54'4 7.7
2017-Oct-26 01:00N 29°32' W 090°49'3 7.0
2017-Oct-26 00:30N 29°33' W 090°45'3 5.1
2017-Oct-26 00:00N 29°34' W 090°43'3 6.8
2017-Oct-25 23:30N 29°30' W 090°43'  
2017-Oct-21 00:30N 29°32' W 090°50'4 8.1
2017-Oct-21 00:00N 29°32' W 090°46'3 6.0
2017-Oct-20 23:30N 29°34' W 090°43'3 7.0
2017-Oct-20 23:00N 29°31' W 090°43'4 7.8
2017-Oct-20 22:30N 29°27' W 090°43'1 0.1
2017-Oct-20 01:48N 29°26' W 090°43'1 2.0
2017-Oct-20 01:29N 29°26' W 090°43'1 2.7
2017-Oct-20 01:00N 29°28' W 090°43'2 4.3
2017-Oct-20 00:30N 29°30' W 090°43'2 4.4
2017-Oct-20 00:00N 29°32' W 090°42'2 3.6
2017-Oct-19 23:30N 29°34' W 090°42'0 0.1
2017-Oct-19 23:00N 29°34' W 090°42'0 0.0
2017-Oct-19 22:30N 29°34' W 090°42'0 0.0
2017-Oct-19 22:00N 29°34' W 090°42'0 0.0
2017-Oct-19 21:30N 29°34' W 090°42'0 0.1
2017-Oct-19 21:00N 29°34' W 090°42'0 0.0
2017-Oct-19 20:30N 29°34' W 090°42'1 1.6
2017-Oct-19 20:00N 29°34' W 090°43'2 3.0
2017-Oct-19 19:30N 29°34' W 090°45'4 7.3
2017-Oct-19 19:00N 29°32' W 090°48'5 8.1
2017-Oct-19 18:21N 29°33' W 090°54'  
Track history (hours):
 
Tides and Currents Weather Stations Pressure Air Temp Water Temp Dewpoint Dewpoint Depression Visibility Wind Speed Wind Dir Waves Ship Positions

Mr. Dean

Owner: T & D Towing, LLC, Morgan City, LA. More information available from US FCC via Universal Licensing System and Coast Guard Vessel Documentation Center.

Last reported at 2017-Oct-28 10:12 UTC. Time now 2017-Nov-18 23:29 UTC.
Position N 29°34' W 090°33'.
Warning: this ship's position is 21 days out of date.

Date/timePositionNaut miles runAvg speedWind from/ knotsBaromVisibWave heightAir tempDewpointWater temp
2017-Oct-28 10:12N 29°34' W 090°33'1 7.3
2017-Oct-28 10:00N 29°34' W 090°34'3 6.5
2017-Oct-28 09:30N 29°35' W 090°38'3 6.4
2017-Oct-28 09:00N 29°36' W 090°41'2 4.2
2017-Oct-28 08:30N 29°35' W 090°43'3 5.1
2017-Oct-28 08:00N 29°33' W 090°45'3 6.4
2017-Oct-28 07:30N 29°32' W 090°48'  
2017-Oct-26 02:06N 29°36' W 090°58'3 8.0
2017-Oct-26 01:47N 29°34' W 090°56'2 8.0
2017-Oct-26 01:30N 29°33' W 090°54'4 7.7
2017-Oct-26 01:00N 29°32' W 090°49'3 7.0
2017-Oct-26 00:30N 29°33' W 090°45'3 5.1
2017-Oct-26 00:00N 29°34' W 090°43'3 6.8
2017-Oct-25 23:30N 29°30' W 090°43'  
2017-Oct-21 00:30N 29°32' W 090°50'4 8.1
2017-Oct-21 00:00N 29°32' W 090°46'3 6.0
2017-Oct-20 23:30N 29°34' W 090°43'3 7.0
2017-Oct-20 23:00N 29°31' W 090°43'4 7.8
2017-Oct-20 22:30N 29°27' W 090°43'1 0.1
2017-Oct-20 01:48N 29°26' W 090°43'1 2.0
2017-Oct-20 01:29N 29°26' W 090°43'1 2.7
2017-Oct-20 01:00N 29°28' W 090°43'2 4.3
2017-Oct-20 00:30N 29°30' W 090°43'2 4.4
2017-Oct-20 00:00N 29°32' W 090°42'2 3.6
2017-Oct-19 23:30N 29°34' W 090°42'0 0.1
2017-Oct-19 23:00N 29°34' W 090°42'0 0.0
2017-Oct-19 22:30N 29°34' W 090°42'0 0.0
2017-Oct-19 22:00N 29°34' W 090°42'0 0.0
2017-Oct-19 21:30N 29°34' W 090°42'0 0.1
2017-Oct-19 21:00N 29°34' W 090°42'0 0.0
2017-Oct-19 20:30N 29°34' W 090°42'1 1.6
2017-Oct-19 20:00N 29°34' W 090°43'2 3.0
2017-Oct-19 19:30N 29°34' W 090°45'4 7.3
2017-Oct-19 19:00N 29°32' W 090°48'5 8.1
2017-Oct-19 18:21N 29°33' W 090°54'  

Dump ship's entire track history